createdAt,value
2017-07-16T00:00:18.111Z,0
2017-07-16T00:00:58.646Z,0
2017-07-16T00:01:39.190Z,0
2017-07-16T00:02:19.751Z,0
2017-07-16T00:03:00.274Z,0
2017-07-16T00:03:40.804Z,0
2017-07-16T00:04:21.340Z,0
2017-07-16T00:05:01.879Z,0
2017-07-16T00:05:42.418Z,0
2017-07-16T00:06:22.956Z,0
2017-07-16T00:07:03.490Z,0
2017-07-16T00:07:44.033Z,0
2017-07-16T00:08:24.565Z,0
2017-07-16T00:09:05.101Z,0
2017-07-16T00:09:45.643Z,0
2017-07-16T00:10:26.182Z,0
2017-07-16T00:11:06.724Z,0
2017-07-16T00:11:47.260Z,0
2017-07-16T00:12:27.807Z,0
2017-07-16T00:13:08.345Z,0
2017-07-16T00:13:48.882Z,0
2017-07-16T00:14:29.422Z,0
2017-07-16T00:15:09.964Z,0
2017-07-16T00:15:50.502Z,0
2017-07-16T00:16:31.040Z,0
2017-07-16T00:17:11.579Z,0
2017-07-16T00:17:52.117Z,0
2017-07-16T00:18:32.660Z,0
2017-07-16T00:19:13.201Z,0
2017-07-16T00:19:53.749Z,0
2017-07-16T00:20:34.288Z,0
2017-07-16T00:21:14.826Z,0
2017-07-16T00:21:55.359Z,0
2017-07-16T00:22:35.905Z,0
2017-07-16T00:23:16.444Z,0
2017-07-16T00:23:56.984Z,0
2017-07-16T00:24:37.524Z,0
2017-07-16T00:25:18.067Z,0
2017-07-16T00:25:58.608Z,0
2017-07-16T00:26:39.152Z,0
2017-07-16T00:27:19.681Z,0
2017-07-16T00:28:00.215Z,0
2017-07-16T00:28:40.760Z,0
2017-07-16T00:29:21.294Z,0
2017-07-16T00:30:01.828Z,0
2017-07-16T00:30:42.373Z,0
2017-07-16T00:31:22.909Z,0
2017-07-16T00:32:03.457Z,0
2017-07-16T00:32:44.000Z,0
2017-07-16T00:33:24.543Z,0
2017-07-16T00:34:05.081Z,0
2017-07-16T00:34:45.619Z,0
2017-07-16T00:35:26.160Z,0
2017-07-16T00:36:06.701Z,0
2017-07-16T00:36:47.239Z,0
2017-07-16T00:37:27.784Z,0
2017-07-16T00:38:08.330Z,0
2017-07-16T00:38:48.878Z,0
2017-07-16T00:39:29.415Z,0
2017-07-16T00:40:09.965Z,0
2017-07-16T00:40:50.517Z,0
2017-07-16T00:41:31.054Z,0
2017-07-16T00:42:11.599Z,0
2017-07-16T00:42:52.138Z,0
2017-07-16T00:43:32.678Z,0
2017-07-16T00:44:13.223Z,0
2017-07-16T00:44:53.763Z,0
2017-07-16T00:45:34.311Z,0
2017-07-16T00:46:14.856Z,0
2017-07-16T00:46:55.394Z,0
2017-07-16T00:47:35.938Z,0
2017-07-16T00:48:16.480Z,0
2017-07-16T00:48:57.024Z,0
2017-07-16T00:49:37.569Z,0
2017-07-16T00:50:18.135Z,0
2017-07-16T00:50:58.671Z,0
2017-07-16T00:51:39.205Z,0
2017-07-16T00:52:19.746Z,0
2017-07-16T00:53:00.285Z,0
2017-07-16T00:53:40.860Z,0
2017-07-16T00:54:21.400Z,0
2017-07-16T00:55:01.937Z,0
2017-07-16T00:55:42.479Z,0
2017-07-16T00:56:23.020Z,0
2017-07-16T00:57:03.566Z,0
2017-07-16T00:57:44.105Z,0
2017-07-16T00:58:24.648Z,0
2017-07-16T00:59:05.189Z,0
2017-07-16T00:59:45.728Z,0
2017-07-16T01:00:26.267Z,0
2017-07-16T01:01:06.808Z,0
2017-07-16T01:01:47.343Z,0
2017-07-16T01:02:27.882Z,0
2017-07-16T01:03:08.423Z,0
2017-07-16T01:03:48.961Z,0
2017-07-16T01:04:29.505Z,0
2017-07-16T01:05:10.041Z,0
2017-07-16T01:05:50.584Z,0
2017-07-16T01:06:31.123Z,0
2017-07-16T01:07:11.657Z,0
2017-07-16T01:07:52.199Z,0
2017-07-16T01:08:32.741Z,0
2017-07-16T01:09:13.281Z,0
2017-07-16T01:09:53.818Z,0
2017-07-16T01:10:34.383Z,0
2017-07-16T01:11:14.920Z,0
2017-07-16T01:11:55.462Z,0
2017-07-16T01:12:36.007Z,0
2017-07-16T01:13:16.554Z,0
2017-07-16T01:13:57.100Z,0
2017-07-16T01:14:37.643Z,0
2017-07-16T01:15:18.182Z,0
2017-07-16T01:15:58.714Z,0
2017-07-16T01:16:39.252Z,0
2017-07-16T01:17:19.792Z,0
2017-07-16T01:18:00.345Z,0
2017-07-16T01:18:40.888Z,0
2017-07-16T01:19:21.422Z,0
2017-07-16T01:20:01.956Z,0
2017-07-16T01:20:42.499Z,0
2017-07-16T01:21:23.038Z,0
2017-07-16T01:22:03.575Z,0
2017-07-16T01:22:44.116Z,0
2017-07-16T01:23:24.658Z,0
2017-07-16T01:24:05.198Z,0
2017-07-16T01:24:45.738Z,0
2017-07-16T01:25:26.283Z,0
2017-07-16T01:26:06.828Z,0
2017-07-16T01:26:47.368Z,0
2017-07-16T01:27:27.899Z,0
2017-07-16T01:28:08.434Z,0
2017-07-16T01:28:48.976Z,0
2017-07-16T01:29:29.515Z,0
2017-07-16T01:30:10.057Z,0
2017-07-16T01:30:50.600Z,0
2017-07-16T01:31:31.138Z,0
2017-07-16T01:32:11.680Z,0
2017-07-16T01:32:52.219Z,0
2017-07-16T01:33:32.757Z,0
2017-07-16T01:34:13.302Z,0
2017-07-16T01:34:53.836Z,0
2017-07-16T01:35:34.378Z,0
2017-07-16T01:36:14.918Z,0
2017-07-16T01:36:55.459Z,0
2017-07-16T01:37:36.006Z,0
2017-07-16T01:38:16.538Z,0
2017-07-16T01:38:57.086Z,0
2017-07-16T01:39:37.626Z,0
2017-07-16T01:40:18.177Z,0
2017-07-16T01:40:58.718Z,0
2017-07-16T01:41:39.254Z,0
2017-07-16T01:42:19.796Z,0
2017-07-16T01:43:00.336Z,0
2017-07-16T01:43:40.874Z,0
2017-07-16T01:44:21.459Z,0
2017-07-16T01:45:01.998Z,0
2017-07-16T01:45:42.539Z,0
2017-07-16T01:46:23.078Z,0
2017-07-16T01:47:03.618Z,0
2017-07-16T01:47:44.172Z,0
2017-07-16T01:48:24.723Z,0
2017-07-16T01:49:05.264Z,0
2017-07-16T01:49:45.808Z,0
2017-07-16T01:50:26.355Z,0
2017-07-16T01:51:06.909Z,0
2017-07-16T01:51:47.448Z,0
2017-07-16T01:52:27.991Z,0
2017-07-16T01:53:08.542Z,0
2017-07-16T01:53:49.076Z,0
2017-07-16T01:54:29.614Z,0
2017-07-16T01:55:10.154Z,0
2017-07-16T01:55:50.700Z,0
2017-07-16T01:56:31.241Z,0
2017-07-16T01:57:11.783Z,0
2017-07-16T01:57:52.322Z,0
2017-07-16T01:58:32.868Z,0
2017-07-16T01:59:13.407Z,0
2017-07-16T01:59:53.948Z,0
2017-07-16T02:00:34.488Z,0
2017-07-16T02:01:15.028Z,0
2017-07-16T02:01:55.567Z,0
2017-07-16T02:02:36.106Z,0
2017-07-16T02:03:16.641Z,0
2017-07-16T02:03:57.185Z,0
2017-07-16T02:04:37.723Z,0
2017-07-16T02:05:18.265Z,0
2017-07-16T02:05:58.803Z,0
2017-07-16T02:06:39.347Z,0
2017-07-16T02:07:19.889Z,0
2017-07-16T02:08:00.426Z,0
2017-07-16T02:08:40.969Z,0
2017-07-16T02:09:21.503Z,0
2017-07-16T02:10:02.046Z,0
2017-07-16T02:10:42.582Z,0
2017-07-16T02:11:23.129Z,0
2017-07-16T02:12:03.670Z,0
2017-07-16T02:12:44.210Z,0
2017-07-16T02:13:24.760Z,0
2017-07-16T02:14:05.301Z,0
2017-07-16T02:14:45.841Z,0
2017-07-16T02:15:26.381Z,0
2017-07-16T02:16:06.922Z,0
2017-07-16T02:16:47.464Z,0
2017-07-16T02:17:28.006Z,0
2017-07-16T02:18:08.551Z,0
2017-07-16T02:18:49.089Z,0
2017-07-16T02:19:29.638Z,0
2017-07-16T02:20:10.185Z,0
2017-07-16T02:20:50.731Z,0
2017-07-16T02:21:31.273Z,0
2017-07-16T02:22:11.818Z,0
2017-07-16T02:22:52.349Z,0
2017-07-16T02:23:32.887Z,0
2017-07-16T02:24:13.422Z,0
2017-07-16T02:24:53.947Z,0
2017-07-16T02:25:34.489Z,0
2017-07-16T02:26:15.030Z,0
2017-07-16T02:26:55.572Z,0
2017-07-16T02:27:36.110Z,0
2017-07-16T02:28:16.652Z,0
2017-07-16T02:28:57.192Z,0
2017-07-16T02:29:37.726Z,0
2017-07-16T02:30:18.267Z,0
2017-07-16T02:30:58.811Z,0
2017-07-16T02:31:39.339Z,0
2017-07-16T02:32:19.879Z,0
2017-07-16T02:33:00.419Z,0
2017-07-16T02:33:40.961Z,0
2017-07-16T02:34:21.499Z,0
2017-07-16T02:35:02.039Z,0
2017-07-16T02:35:42.580Z,0
2017-07-16T02:36:23.121Z,0
2017-07-16T02:37:03.655Z,0
2017-07-16T02:37:44.193Z,0
2017-07-16T02:38:24.734Z,0
2017-07-16T02:39:05.262Z,0
2017-07-16T02:39:45.802Z,0
2017-07-16T02:40:26.341Z,0
2017-07-16T02:41:06.881Z,0
2017-07-16T02:41:47.426Z,0
2017-07-16T02:42:27.972Z,0
2017-07-16T02:43:08.510Z,0
2017-07-16T02:43:49.057Z,0
2017-07-16T02:44:29.609Z,0
2017-07-16T02:45:10.153Z,0
2017-07-16T02:45:50.691Z,0
2017-07-16T02:46:31.242Z,0
2017-07-16T02:47:11.786Z,0
2017-07-16T02:47:52.327Z,0
2017-07-16T02:48:32.863Z,0
2017-07-16T02:49:13.410Z,0
2017-07-16T02:49:53.951Z,0
2017-07-16T02:50:34.495Z,0
2017-07-16T02:51:15.040Z,0
2017-07-16T02:51:55.582Z,0
2017-07-16T02:52:36.120Z,0
2017-07-16T02:53:16.667Z,0
2017-07-16T02:53:57.212Z,0
2017-07-16T02:54:37.751Z,0
2017-07-16T02:55:18.295Z,0
2017-07-16T02:55:58.837Z,0
2017-07-16T02:56:39.373Z,0
2017-07-16T02:57:19.916Z,0
2017-07-16T02:58:00.458Z,0
2017-07-16T02:58:41.001Z,0
2017-07-16T02:59:21.545Z,0
2017-07-16T03:00:02.089Z,0
2017-07-16T03:00:42.629Z,0
2017-07-16T03:01:23.179Z,0
2017-07-16T03:02:03.728Z,0
2017-07-16T03:02:44.271Z,0
2017-07-16T03:03:24.810Z,0
2017-07-16T03:04:05.360Z,0
2017-07-16T03:04:45.903Z,0
2017-07-16T03:05:26.453Z,0
2017-07-16T03:06:06.990Z,0
2017-07-16T03:06:47.534Z,0
2017-07-16T03:07:28.073Z,0
2017-07-16T03:08:08.615Z,0
2017-07-16T03:08:49.155Z,0
2017-07-16T03:09:29.692Z,0
2017-07-16T03:10:10.239Z,0
2017-07-16T03:10:50.786Z,0
2017-07-16T03:11:31.329Z,0
2017-07-16T03:12:11.872Z,0
2017-07-16T03:12:52.408Z,0
2017-07-16T03:13:32.943Z,0
2017-07-16T03:14:13.485Z,0
2017-07-16T03:14:54.026Z,0
2017-07-16T03:15:34.567Z,0
2017-07-16T03:16:15.113Z,0
2017-07-16T03:16:55.662Z,0
2017-07-16T03:17:36.208Z,0
2017-07-16T03:18:16.747Z,0
2017-07-16T03:18:57.291Z,0
2017-07-16T03:19:37.836Z,0
2017-07-16T03:20:18.376Z,0
2017-07-16T03:20:58.913Z,0
2017-07-16T03:21:39.457Z,0
2017-07-16T03:22:19.999Z,0
2017-07-16T03:23:00.540Z,0
2017-07-16T03:23:41.080Z,0
2017-07-16T03:24:21.631Z,0
2017-07-16T03:25:02.160Z,0
2017-07-16T03:25:42.718Z,0
2017-07-16T03:26:23.254Z,0
2017-07-16T03:27:03.796Z,0
2017-07-16T03:27:44.347Z,0
2017-07-16T03:28:24.873Z,0
2017-07-16T03:29:05.408Z,0
2017-07-16T03:29:45.948Z,0
2017-07-16T03:30:26.518Z,0
2017-07-16T03:31:07.035Z,0
2017-07-16T03:31:47.575Z,0
2017-07-16T03:32:28.143Z,0
2017-07-16T03:33:08.661Z,0
2017-07-16T03:33:49.204Z,0
2017-07-16T03:34:29.741Z,0
2017-07-16T03:35:10.269Z,0
2017-07-16T03:35:50.812Z,0
2017-07-16T03:36:31.354Z,0
2017-07-16T03:37:11.899Z,0
2017-07-16T03:37:52.440Z,0
2017-07-16T03:38:32.981Z,0
2017-07-16T03:39:13.517Z,0
2017-07-16T03:39:54.060Z,0
2017-07-16T03:40:34.598Z,0
2017-07-16T03:41:15.146Z,0
2017-07-16T03:41:55.715Z,0
2017-07-16T03:42:36.226Z,0
2017-07-16T03:43:16.794Z,0
2017-07-16T03:43:57.327Z,0
2017-07-16T03:44:37.862Z,5
2017-07-16T03:45:18.395Z,5
2017-07-16T03:45:58.935Z,5
2017-07-16T03:46:39.478Z,5
2017-07-16T03:47:20.017Z,5
2017-07-16T03:48:00.559Z,5
2017-07-16T03:48:41.104Z,5
2017-07-16T03:49:21.648Z,5
2017-07-16T03:50:02.192Z,5
2017-07-16T03:50:42.728Z,5
2017-07-16T03:51:23.270Z,5
2017-07-16T03:52:03.809Z,5
2017-07-16T03:52:44.348Z,5
2017-07-16T03:53:24.894Z,5
2017-07-16T03:54:05.431Z,5
2017-07-16T03:54:45.996Z,5
2017-07-16T03:55:26.534Z,5
2017-07-16T03:56:07.077Z,5
2017-07-16T03:56:47.616Z,5
2017-07-16T03:57:28.154Z,5
2017-07-16T03:58:08.698Z,10
2017-07-16T03:58:49.232Z,10
2017-07-16T03:59:29.774Z,10
2017-07-16T04:00:10.308Z,10
2017-07-16T04:00:50.857Z,10
2017-07-16T04:01:31.402Z,10
2017-07-16T04:02:11.942Z,10
2017-07-16T04:02:52.486Z,10
2017-07-16T04:03:33.025Z,10
2017-07-16T04:04:13.571Z,10
2017-07-16T04:04:54.106Z,10
2017-07-16T04:05:34.651Z,10
2017-07-16T04:06:15.192Z,10
2017-07-16T04:06:55.732Z,10
2017-07-16T04:07:36.273Z,10
2017-07-16T04:08:16.814Z,10
2017-07-16T04:08:57.356Z,10
2017-07-16T04:09:37.899Z,10
2017-07-16T04:10:18.441Z,10
2017-07-16T04:10:58.980Z,10
2017-07-16T04:11:39.510Z,10
2017-07-16T04:12:20.051Z,10
2017-07-16T04:13:00.591Z,10
2017-07-16T04:13:41.137Z,10
2017-07-16T04:14:21.677Z,10
2017-07-16T04:15:02.217Z,10
2017-07-16T04:15:42.756Z,10
2017-07-16T04:16:23.304Z,10
2017-07-16T04:17:03.865Z,10
2017-07-16T04:17:44.386Z,15
2017-07-16T04:18:24.936Z,15
2017-07-16T04:19:05.478Z,15
2017-07-16T04:19:46.019Z,15
2017-07-16T04:20:26.560Z,15
2017-07-16T04:21:07.105Z,15
2017-07-16T04:21:47.646Z,15
2017-07-16T04:22:28.187Z,15
2017-07-16T04:23:08.727Z,15
2017-07-16T04:23:49.276Z,15
2017-07-16T04:24:29.814Z,15
2017-07-16T04:25:10.358Z,15
2017-07-16T04:25:50.906Z,15
2017-07-16T04:26:31.446Z,15
2017-07-16T04:27:12.009Z,20
2017-07-16T04:27:52.539Z,20
2017-07-16T04:28:33.084Z,20
2017-07-16T04:29:13.629Z,25
2017-07-16T04:29:54.156Z,25
2017-07-16T04:30:34.698Z,25
2017-07-16T04:31:15.238Z,25
2017-07-16T04:31:55.784Z,25
2017-07-16T04:32:36.323Z,25
2017-07-16T04:33:16.869Z,25
2017-07-16T04:33:57.402Z,25
2017-07-16T04:34:37.955Z,25
2017-07-16T04:35:18.483Z,30
2017-07-16T04:35:59.032Z,30
2017-07-16T04:36:39.573Z,30
2017-07-16T04:37:20.113Z,30
2017-07-16T04:38:00.656Z,35
2017-07-16T04:38:41.194Z,35
2017-07-16T04:39:21.737Z,35
2017-07-16T04:40:02.284Z,35
2017-07-16T04:40:42.829Z,35
2017-07-16T04:41:23.371Z,30
2017-07-16T04:42:03.915Z,35
2017-07-16T04:42:44.462Z,35
2017-07-16T04:43:25.004Z,35
2017-07-16T04:44:05.554Z,30
2017-07-16T04:44:46.098Z,30
2017-07-16T04:45:26.641Z,30
2017-07-16T04:46:07.188Z,25
2017-07-16T04:46:47.730Z,25
2017-07-16T04:47:28.275Z,25
2017-07-16T04:48:08.810Z,25
2017-07-16T04:48:49.355Z,25
2017-07-16T04:49:29.903Z,25
2017-07-16T04:50:10.439Z,25
2017-07-16T04:50:50.983Z,25
2017-07-16T04:51:31.524Z,25
2017-07-16T04:52:12.061Z,25
2017-07-16T04:52:52.604Z,30
2017-07-16T04:53:33.138Z,30
2017-07-16T04:54:13.700Z,30
2017-07-16T04:54:54.234Z,30
2017-07-16T04:55:34.779Z,30
2017-07-16T04:56:15.322Z,35
2017-07-16T04:56:55.870Z,35
2017-07-16T04:57:36.412Z,40
2017-07-16T04:58:16.950Z,40
2017-07-16T04:58:57.564Z,40
2017-07-16T04:59:38.109Z,40
2017-07-16T05:00:18.683Z,40
2017-07-16T05:00:59.190Z,40
2017-07-16T05:01:39.730Z,40
2017-07-16T05:02:20.259Z,40
2017-07-16T05:03:00.803Z,45
2017-07-16T05:03:41.383Z,40
2017-07-16T05:04:21.887Z,40
2017-07-16T05:05:02.444Z,35
2017-07-16T05:05:42.976Z,30
2017-07-16T05:06:23.526Z,30
2017-07-16T05:07:04.066Z,30
2017-07-16T05:07:44.608Z,25
2017-07-16T05:08:25.152Z,30
2017-07-16T05:09:05.696Z,30
2017-07-16T05:09:46.240Z,30
2017-07-16T05:10:26.782Z,30
2017-07-16T05:11:07.328Z,35
2017-07-16T05:11:47.870Z,35
2017-07-16T05:12:28.412Z,35
2017-07-16T05:13:08.960Z,40
2017-07-16T05:13:49.503Z,40
2017-07-16T05:14:30.048Z,45
2017-07-16T05:15:10.607Z,50
2017-07-16T05:15:51.156Z,55
2017-07-16T05:16:31.712Z,55
2017-07-16T05:17:12.267Z,60
2017-07-16T05:17:52.841Z,60
2017-07-16T05:18:33.351Z,60
2017-07-16T05:19:13.894Z,60
2017-07-16T05:19:54.436Z,60
2017-07-16T05:20:34.994Z,60
2017-07-16T05:21:15.523Z,60
2017-07-16T05:21:56.067Z,60
2017-07-16T05:22:36.616Z,55
2017-07-16T05:23:17.166Z,55
2017-07-16T05:23:57.718Z,55
2017-07-16T05:24:38.268Z,55
2017-07-16T05:25:18.812Z,60
2017-07-16T05:25:59.356Z,60
2017-07-16T05:26:39.901Z,60
2017-07-16T05:27:20.452Z,60
2017-07-16T05:28:00.992Z,60
2017-07-16T05:28:41.576Z,60
2017-07-16T05:29:22.126Z,60
2017-07-16T05:30:02.676Z,60
2017-07-16T05:30:43.223Z,65
2017-07-16T05:31:23.765Z,65
2017-07-16T05:32:04.319Z,65
2017-07-16T05:32:44.859Z,65
2017-07-16T05:33:25.399Z,70
2017-07-16T05:34:05.944Z,75
2017-07-16T05:34:46.494Z,80
2017-07-16T05:35:27.025Z,80
2017-07-16T05:36:07.551Z,80
2017-07-16T05:36:48.089Z,85
2017-07-16T05:37:28.632Z,85
2017-07-16T05:38:09.173Z,85
2017-07-16T05:38:49.723Z,85
2017-07-16T05:39:30.272Z,80
2017-07-16T05:40:10.813Z,80
2017-07-16T05:40:51.370Z,80
2017-07-16T05:41:31.915Z,85
2017-07-16T05:42:12.455Z,90
2017-07-16T05:42:53.006Z,95
2017-07-16T05:43:33.573Z,95
2017-07-16T05:44:14.138Z,90
2017-07-16T05:44:54.675Z,85
2017-07-16T05:45:35.222Z,80
2017-07-16T05:46:15.772Z,75
2017-07-16T05:46:56.323Z,75
2017-07-16T05:47:36.872Z,70
2017-07-16T05:48:17.413Z,65
2017-07-16T05:48:57.975Z,65
2017-07-16T05:49:39.377Z,60
2017-07-16T05:50:20.979Z,60
2017-07-16T05:51:02.178Z,60
2017-07-16T05:51:42.726Z,60
2017-07-16T05:52:23.271Z,60
2017-07-16T05:53:03.810Z,60
2017-07-16T05:53:44.357Z,60
2017-07-16T05:54:24.906Z,60
2017-07-16T05:55:05.442Z,65
2017-07-16T05:55:45.980Z,65
2017-07-16T05:56:26.529Z,65
2017-07-16T05:57:07.069Z,60
2017-07-16T05:57:47.610Z,55
2017-07-16T05:58:28.158Z,55
2017-07-16T05:59:08.690Z,55
2017-07-16T05:59:49.235Z,50
2017-07-16T06:00:29.780Z,50
2017-07-16T06:01:10.336Z,50
2017-07-16T06:01:50.871Z,60
2017-07-16T06:02:31.400Z,60
2017-07-16T06:03:11.935Z,55
2017-07-16T06:03:52.484Z,55
2017-07-16T06:04:33.025Z,55
2017-07-16T06:05:13.566Z,60
2017-07-16T06:05:54.109Z,70
2017-07-16T06:06:34.646Z,70
2017-07-16T06:07:15.204Z,65
2017-07-16T06:07:55.758Z,65
2017-07-16T06:08:36.309Z,60
2017-07-16T06:09:16.847Z,60
2017-07-16T06:09:57.397Z,60
2017-07-16T06:10:37.942Z,60
2017-07-16T06:11:18.484Z,65
2017-07-16T06:11:59.024Z,70
2017-07-16T06:12:39.576Z,70
2017-07-16T06:13:20.120Z,70
2017-07-16T06:14:00.691Z,70
2017-07-16T06:14:41.231Z,70
2017-07-16T06:15:21.766Z,75
2017-07-16T06:16:02.310Z,80
2017-07-16T06:16:42.852Z,80
2017-07-16T06:17:23.400Z,80
2017-07-16T06:18:03.944Z,80
2017-07-16T06:18:44.492Z,75
2017-07-16T06:19:25.034Z,70
2017-07-16T06:20:05.576Z,70
2017-07-16T06:20:46.123Z,70
2017-07-16T06:21:26.669Z,65
2017-07-16T06:22:07.205Z,65
2017-07-16T06:22:47.747Z,65
2017-07-16T06:23:28.284Z,55
2017-07-16T06:24:08.828Z,55
2017-07-16T06:24:49.366Z,55
2017-07-16T06:25:29.910Z,60
2017-07-16T06:26:10.453Z,65
2017-07-16T06:26:50.999Z,55
2017-07-16T06:27:31.542Z,55
2017-07-16T06:28:12.082Z,60
2017-07-16T06:28:52.633Z,60
2017-07-16T06:29:33.183Z,60
2017-07-16T06:30:13.720Z,60
2017-07-16T06:30:54.264Z,60
2017-07-16T06:31:34.799Z,60
2017-07-16T06:32:15.354Z,60
2017-07-16T06:32:55.902Z,65
2017-07-16T06:33:36.431Z,65
2017-07-16T06:34:16.969Z,65
2017-07-16T06:34:57.509Z,65
2017-07-16T06:35:38.058Z,60
2017-07-16T06:36:18.600Z,60
2017-07-16T06:36:59.172Z,55
2017-07-16T06:37:39.717Z,55
2017-07-16T06:38:20.266Z,55
2017-07-16T06:39:00.809Z,55
2017-07-16T06:39:41.342Z,55
2017-07-16T06:40:21.891Z,55
2017-07-16T06:41:02.430Z,55
2017-07-16T06:41:42.969Z,55
2017-07-16T06:42:23.521Z,55
2017-07-16T06:43:04.069Z,55
2017-07-16T06:43:44.629Z,55
2017-07-16T06:44:25.166Z,50
2017-07-16T06:45:05.723Z,50
2017-07-16T06:45:46.261Z,55
2017-07-16T06:46:26.803Z,60
2017-07-16T06:47:07.351Z,60
2017-07-16T06:47:47.891Z,60
2017-07-16T06:48:28.434Z,65
2017-07-16T06:49:08.977Z,65
2017-07-16T06:49:49.513Z,70
2017-07-16T06:50:30.061Z,70
2017-07-16T06:51:10.600Z,75
2017-07-16T06:51:51.145Z,85
2017-07-16T06:52:31.689Z,85
2017-07-16T06:53:12.234Z,90
2017-07-16T06:53:52.781Z,90
2017-07-16T06:54:33.311Z,90
2017-07-16T06:55:13.849Z,85
2017-07-16T06:55:54.391Z,85
2017-07-16T06:56:34.934Z,85
2017-07-16T06:57:15.470Z,85
2017-07-16T06:57:56.011Z,85
2017-07-16T06:58:36.558Z,90
2017-07-16T06:59:17.099Z,90
2017-07-16T06:59:57.645Z,90
2017-07-16T07:00:38.189Z,95
2017-07-16T07:01:18.731Z,100
2017-07-16T07:01:59.279Z,95
2017-07-16T07:02:39.827Z,100
2017-07-16T07:03:20.371Z,100
2017-07-16T07:04:00.909Z,100
2017-07-16T07:04:41.448Z,105
2017-07-16T07:05:21.978Z,105
2017-07-16T07:06:02.522Z,105
2017-07-16T07:06:43.069Z,105
2017-07-16T07:07:23.617Z,105
2017-07-16T07:08:04.192Z,105
2017-07-16T07:08:44.736Z,115
2017-07-16T07:09:25.280Z,115
2017-07-16T07:10:05.825Z,115
2017-07-16T07:10:46.374Z,110
2017-07-16T07:11:26.913Z,115
2017-07-16T07:12:07.458Z,115
2017-07-16T07:12:48.003Z,110
2017-07-16T07:13:28.541Z,105
2017-07-16T07:14:09.094Z,100
2017-07-16T07:14:49.631Z,95
2017-07-16T07:15:30.178Z,90
2017-07-16T07:16:10.715Z,85
2017-07-16T07:16:51.251Z,80
2017-07-16T07:17:31.800Z,80
2017-07-16T07:18:12.343Z,75
2017-07-16T07:18:52.886Z,75
2017-07-16T07:19:33.432Z,75
2017-07-16T07:20:13.975Z,80
2017-07-16T07:20:54.520Z,80
2017-07-16T07:21:35.067Z,85
2017-07-16T07:22:15.609Z,85
2017-07-16T07:22:56.154Z,90
2017-07-16T07:23:36.692Z,90
2017-07-16T07:24:17.236Z,95
2017-07-16T07:24:57.783Z,105
2017-07-16T07:25:38.315Z,110
2017-07-16T07:26:18.866Z,120
2017-07-16T07:26:59.401Z,120
2017-07-16T07:27:39.934Z,115
2017-07-16T07:28:20.481Z,115
2017-07-16T07:29:01.038Z,120
2017-07-16T07:29:41.573Z,130
2017-07-16T07:30:22.112Z,130
2017-07-16T07:31:02.660Z,135
2017-07-16T07:31:43.221Z,130
2017-07-16T07:32:23.742Z,135
2017-07-16T07:33:04.283Z,110
2017-07-16T07:33:44.827Z,110
2017-07-16T07:34:25.371Z,105
2017-07-16T07:35:05.964Z,105
2017-07-16T07:35:46.509Z,100
2017-07-16T07:36:27.050Z,100
2017-07-16T07:37:07.587Z,100
2017-07-16T07:37:48.129Z,100
2017-07-16T07:38:28.670Z,100
2017-07-16T07:39:09.211Z,95
2017-07-16T07:39:49.759Z,90
2017-07-16T07:40:30.293Z,90
2017-07-16T07:41:10.840Z,90
2017-07-16T07:41:51.383Z,90
2017-07-16T07:42:31.924Z,90
2017-07-16T07:43:12.466Z,95
2017-07-16T07:43:53.004Z,95
2017-07-16T07:44:33.540Z,95
2017-07-16T07:45:14.091Z,95
2017-07-16T07:45:54.631Z,95
2017-07-16T07:46:35.172Z,100
2017-07-16T07:47:15.716Z,100
2017-07-16T07:47:56.251Z,105
2017-07-16T07:48:36.800Z,110
2017-07-16T07:49:17.342Z,110
2017-07-16T07:49:57.886Z,110
2017-07-16T07:50:38.421Z,110
2017-07-16T07:51:18.960Z,110
2017-07-16T07:51:59.505Z,115
2017-07-16T07:52:40.048Z,120
2017-07-16T07:53:20.590Z,125
2017-07-16T07:54:01.133Z,125
2017-07-16T07:54:41.673Z,135
2017-07-16T07:55:22.223Z,140
2017-07-16T07:56:02.776Z,140
2017-07-16T07:56:43.311Z,145
2017-07-16T07:57:23.860Z,145
2017-07-16T07:58:04.407Z,150
2017-07-16T07:58:44.954Z,155
2017-07-16T07:59:25.503Z,150
2017-07-16T08:00:06.042Z,155
2017-07-16T08:00:47.040Z,155
2017-07-16T08:01:27.591Z,155
2017-07-16T08:02:08.126Z,165
2017-07-16T08:02:48.670Z,170
2017-07-16T08:03:29.209Z,180
2017-07-16T08:04:09.762Z,180
2017-07-16T08:04:50.314Z,185
2017-07-16T08:05:30.859Z,185
2017-07-16T08:06:11.490Z,190
2017-07-16T08:06:52.040Z,195
2017-07-16T08:07:32.583Z,195
2017-07-16T08:08:13.125Z,185
2017-07-16T08:08:53.670Z,175
2017-07-16T08:09:34.211Z,170
2017-07-16T08:10:14.763Z,160
2017-07-16T08:10:55.294Z,155
2017-07-16T08:11:35.854Z,155
2017-07-16T08:12:16.394Z,155
2017-07-16T08:12:56.941Z,160
2017-07-16T08:13:37.490Z,165
2017-07-16T08:14:18.033Z,165
2017-07-16T08:14:58.582Z,165
2017-07-16T08:15:39.099Z,165
2017-07-16T08:16:19.654Z,170
2017-07-16T08:17:00.194Z,175
2017-07-16T08:17:40.734Z,185
2017-07-16T08:18:21.273Z,190
2017-07-16T08:19:01.814Z,195
2017-07-16T08:19:42.361Z,195
2017-07-16T08:20:22.904Z,190
2017-07-16T08:21:03.449Z,190
2017-07-16T08:21:43.992Z,190
2017-07-16T08:22:24.532Z,200
2017-07-16T08:23:05.079Z,210
2017-07-16T08:23:45.623Z,220
2017-07-16T08:24:26.168Z,230
2017-07-16T08:25:06.711Z,235
2017-07-16T08:25:47.255Z,240
2017-07-16T08:26:27.882Z,255
2017-07-16T08:27:08.422Z,265
2017-07-16T08:27:48.970Z,275
2017-07-16T08:28:29.589Z,295
2017-07-16T08:29:10.141Z,300
2017-07-16T08:29:50.675Z,300
2017-07-16T08:30:31.281Z,290
2017-07-16T08:31:11.820Z,280
2017-07-16T08:31:52.366Z,275
2017-07-16T08:32:32.980Z,270
2017-07-16T08:33:13.644Z,255
2017-07-16T08:33:54.180Z,255
2017-07-16T08:34:34.782Z,270
2017-07-16T08:35:15.325Z,270
2017-07-16T08:35:55.868Z,280
2017-07-16T08:36:36.410Z,275
2017-07-16T08:37:17.101Z,275
2017-07-16T08:37:57.676Z,270
2017-07-16T08:38:38.284Z,265
2017-07-16T08:39:18.888Z,250
2017-07-16T08:39:59.501Z,230
2017-07-16T08:40:40.041Z,220
2017-07-16T08:41:20.693Z,210
2017-07-16T08:42:01.238Z,205
2017-07-16T08:42:41.778Z,215
2017-07-16T08:43:22.327Z,210
2017-07-16T08:44:03.009Z,220
2017-07-16T08:44:43.567Z,205
2017-07-16T08:45:24.119Z,210
2017-07-16T08:46:04.664Z,210
2017-07-16T08:46:45.251Z,215
2017-07-16T08:47:25.791Z,230
2017-07-16T08:48:06.332Z,245
2017-07-16T08:48:46.875Z,290
2017-07-16T08:49:27.422Z,325
2017-07-16T08:50:07.958Z,360
2017-07-16T08:50:48.505Z,375
2017-07-16T08:51:29.049Z,365
2017-07-16T08:52:09.590Z,345
2017-07-16T08:52:50.270Z,325
2017-07-16T08:53:30.884Z,315
2017-07-16T08:54:11.426Z,315
2017-07-16T08:54:51.966Z,325
2017-07-16T08:55:32.566Z,335
2017-07-16T08:56:13.167Z,355
2017-07-16T08:56:53.814Z,385
2017-07-16T08:57:34.343Z,400
2017-07-16T08:58:14.911Z,405
2017-07-16T08:58:55.524Z,395
2017-07-16T08:59:36.065Z,380
2017-07-16T09:00:16.663Z,355
2017-07-16T09:00:57.283Z,345
2017-07-16T09:01:37.860Z,340
2017-07-16T09:02:18.402Z,345
2017-07-16T09:02:59.067Z,355
2017-07-16T09:03:39.653Z,360
2017-07-16T09:04:20.200Z,355
2017-07-16T09:05:00.743Z,335
2017-07-16T09:05:41.365Z,295
2017-07-16T09:06:22.065Z,305
2017-07-16T09:07:02.609Z,305
2017-07-16T09:07:43.149Z,310
2017-07-16T09:08:23.888Z,310
2017-07-16T09:09:04.508Z,310
2017-07-16T09:09:45.098Z,315
2017-07-16T09:10:25.639Z,320
2017-07-16T09:11:06.329Z,325
2017-07-16T09:11:46.872Z,340
2017-07-16T09:12:27.465Z,355
2017-07-16T09:13:08.110Z,385
2017-07-16T09:13:48.723Z,390
2017-07-16T09:14:29.316Z,400
2017-07-16T09:15:09.933Z,390
2017-07-16T09:15:50.701Z,390
2017-07-16T09:16:31.453Z,385
2017-07-16T09:17:12.148Z,385
2017-07-16T09:17:52.690Z,380
2017-07-16T09:18:33.261Z,370
2017-07-16T09:19:13.881Z,355
2017-07-16T09:19:54.448Z,335
2017-07-16T09:20:35.054Z,315
2017-07-16T09:21:15.584Z,300
2017-07-16T09:21:56.247Z,295
2017-07-16T09:22:36.800Z,290
2017-07-16T09:23:17.392Z,290
2017-07-16T09:23:58.213Z,295
2017-07-16T09:24:38.887Z,295
2017-07-16T09:25:19.467Z,295
2017-07-16T09:26:00.013Z,290
2017-07-16T09:26:40.561Z,275
2017-07-16T09:27:21.100Z,270
2017-07-16T09:28:01.650Z,255
2017-07-16T09:28:42.192Z,250
2017-07-16T09:29:22.740Z,250
2017-07-16T09:30:03.282Z,245
2017-07-16T09:30:43.825Z,240
2017-07-16T09:31:24.368Z,240
2017-07-16T09:32:04.919Z,245
2017-07-16T09:32:45.465Z,260
2017-07-16T09:33:26.011Z,270
2017-07-16T09:34:06.586Z,280
2017-07-16T09:34:47.203Z,290
2017-07-16T09:35:27.747Z,295
2017-07-16T09:36:08.299Z,295
2017-07-16T09:36:48.847Z,305
2017-07-16T09:37:29.385Z,315
2017-07-16T09:38:09.928Z,335
2017-07-16T09:38:50.477Z,350
2017-07-16T09:39:31.027Z,340
2017-07-16T09:40:11.567Z,320
2017-07-16T09:40:52.118Z,310
2017-07-16T09:41:32.721Z,305